Time;durP1;ratioP1;P1;durP2;ratioP2;P2;SDS_P1;SDS_P2;PMS_P1;PMS_P2;Temp;Humidity;BMP_temperature;BMP_pressure;BME280_temperature;BME280_humidity;BME280_pressure;Samples;Min_cycle;Max_cycle;Signal;HPM_P1;HPM_P2
2021/03/09 00:00:04;;;;;;;36.25;26.65;;;;;;;-1.04;100.00;96514.56;5045094;28;20044;-57
2021/03/09 00:02:31;;;;;;;39.70;30.17;;;;;;;-1.04;100.00;96517.13;5063127;28;20047;-58
2021/03/09 00:04:58;;;;;;;36.08;26.65;;;;;;;-0.98;100.00;96509.09;5059860;28;20140;-57
2021/03/09 00:07:26;;;;;;;28.42;20.88;;;;;;;-1.00;100.00;96510.91;5043264;28;20044;-56
2021/03/09 00:09:53;;;;;;;24.13;16.73;;;;;;;-1.12;100.00;96511.50;5068822;28;20068;-54
2021/03/09 00:12:20;;;;;;;20.55;16.25;;;;;;;-1.08;100.00;96507.84;5042014;28;20040;-56
2021/03/09 00:14:47;;;;;;;23.48;16.50;;;;;;;-1.11;100.00;96505.41;5046414;28;20040;-57
2021/03/09 00:17:29;;;;;;;23.70;16.33;;;;;;;-1.38;100.00;96505.78;4996884;28;20037;-53
2021/03/09 00:19:56;;;;;;;23.67;17.60;;;;;;;-1.47;100.00;96507.03;5064802;28;20483;-53
2021/03/09 00:22:24;;;;;;;22.23;15.98;;;;;;;-1.40;100.00;96510.19;5026097;28;20102;-55
2021/03/09 00:24:52;;;;;;;23.23;16.70;;;;;;;-1.31;100.00;96508.91;5063667;28;20044;-53
2021/03/09 00:27:18;;;;;;;20.67;16.48;;;;;;;-1.02;100.00;96504.97;5028538;28;21354;-57
2021/03/09 00:29:45;;;;;;;20.83;16.13;;;;;;;-1.13;100.00;96494.31;5079904;28;20564;-56
2021/03/09 00:32:12;;;;;;;24.85;17.10;;;;;;;-1.10;100.00;96487.22;5030614;28;20131;-58
2021/03/09 00:34:39;;;;;;;21.90;15.93;;;;;;;-1.18;100.00;96483.31;5069062;28;20068;-55
2021/03/09 00:37:06;;;;;;;24.58;16.70;;;;;;;-1.34;100.00;96489.22;5027332;28;20036;-54
2021/03/09 00:39:33;;;;;;;21.45;16.65;;;;;;;-1.18;100.00;96483.31;5060360;28;20554;-53
2021/03/09 00:42:01;;;;;;;22.02;16.10;;;;;;;-1.04;100.00;96486.91;5029334;28;20069;-55
2021/03/09 00:44:28;;;;;;;24.13;17.08;;;;;;;-1.06;100.00;96487.94;5060720;28;20060;-54
2021/03/09 00:46:54;;;;;;;25.90;17.92;;;;;;;-1.27;100.00;96477.69;5036235;28;20064;-57
2021/03/09 00:49:21;;;;;;;22.80;16.75;;;;;;;-1.34;100.00;96481.47;5076964;28;20101;-56
2021/03/09 00:51:48;;;;;;;25.38;17.70;;;;;;;-1.36;100.00;96480.69;5065502;28;20285;-57
2021/03/09 00:54:15;;;;;;;23.90;18.05;;;;;;;-1.42;100.00;96480.13;5044138;28;20094;-58
2021/03/09 00:56:42;;;;;;;27.67;20.27;;;;;;;-1.36;100.00;96470.34;5065588;28;20047;-55
2021/03/09 00:59:10;;;;;;;26.50;18.27;;;;;;;-1.49;100.00;96476.97;5025319;28;20037;-59
2021/03/09 01:01:36;;;;;;;23.85;17.13;;;;;;;-1.46;100.00;96471.66;5077006;28;20044;-59
2021/03/09 01:04:04;;;;;;;25.15;18.05;;;;;;;-1.31;100.00;96476.16;5023692;28;20048;-57
2021/03/09 01:06:31;;;;;;;25.70;17.65;;;;;;;-1.41;100.00;96474.03;5068247;28;20044;-57
2021/03/09 01:08:57;;;;;;;22.83;17.88;;;;;;;-1.60;100.00;96469.72;5026004;28;20041;-59
2021/03/09 01:11:24;;;;;;;24.10;18.23;;;;;;;-1.56;100.00;96468.66;5075325;28;20037;-56
2021/03/09 01:13:51;;;;;;;27.20;18.92;;;;;;;-1.48;100.00;96469.19;5035516;28;20090;-55
2021/03/09 01:16:19;;;;;;;23.15;17.75;;;;;;;-1.58;100.00;96470.50;5071121;28;20064;-57
2021/03/09 01:18:46;;;;;;;22.92;16.83;;;;;;;-1.58;100.00;96467.91;5039298;28;20090;-58
2021/03/09 01:21:13;;;;;;;23.90;16.48;;;;;;;-1.45;100.00;96455.25;5063015;28;20052;-58
2021/03/09 01:23:40;;;;;;;23.83;17.27;;;;;;;-1.41;100.00;96456.78;5007098;28;20041;-55
2021/03/09 01:26:06;;;;;;;26.52;18.45;;;;;;;-1.41;100.00;96461.97;5068659;28;20499;-59
2021/03/09 01:28:33;;;;;;;25.05;16.63;;;;;;;-1.49;100.00;96454.53;5042204;28;20040;-56
2021/03/09 01:31:00;;;;;;;27.50;16.92;;;;;;;-1.54;100.00;96451.34;5071245;28;20131;-58
2021/03/09 01:33:28;;;;;;;25.80;17.58;;;;;;;-1.51;100.00;96455.53;5065224;28;20776;-58
2021/03/09 01:35:55;;;;;;;26.08;17.13;;;;;;;-1.43;100.00;96445.69;5042562;28;20071;-56
2021/03/09 01:38:21;;;;;;;23.40;17.92;;;;;;;-1.46;100.00;96446.66;5062518;28;20045;-59
2021/03/09 01:40:48;;;;;;;25.52;18.08;;;;;;;-1.43;100.00;96440.50;5022428;28;20149;-57
2021/03/09 01:43:15;;;;;;;25.40;17.85;;;;;;;-1.37;100.00;96436.81;5072822;28;20073;-55
2021/03/09 01:45:42;;;;;;;24.08;17.45;;;;;;;-1.44;100.00;96431.91;5026565;28;20064;-57
2021/03/09 01:48:10;;;;;;;28.55;19.15;;;;;;;-1.41;100.00;96427.47;5081664;28;20032;-58
2021/03/09 01:50:39;;;;;;;26.40;17.42;;;;;;;-1.42;100.00;96420.66;5027629;28;20037;-59
2021/03/09 01:53:07;;;;;;;25.83;18.48;;;;;;;-1.41;100.00;96415.41;5075797;28;20164;-56
2021/03/09 01:55:35;;;;;;;25.35;17.63;;;;;;;-1.47;100.00;96410.53;5033886;28;20041;-59
2021/03/09 01:58:06;;;;;;;26.58;18.45;;;;;;;-1.48;100.00;96401.06;5052273;28;20040;-59
2021/03/09 02:00:33;;;;;;;23.13;17.35;;;;;;;-1.42;100.00;96403.38;5019540;28;20532;-57
2021/03/09 02:03:00;;;;;;;27.25;18.67;;;;;;;-1.57;100.00;96399.78;5061460;28;20075;-59
2021/03/09 02:05:28;;;;;;;28.48;19.63;;;;;;;-1.62;100.00;96401.72;5030789;28;20501;-57
2021/03/09 02:07:56;;;;;;;25.45;17.73;;;;;;;-1.61;100.00;96400.00;5065517;28;20040;-57
2021/03/09 02:10:23;;;;;;;26.02;18.17;;;;;;;-1.53;100.00;96392.72;5038042;28;20073;-58
2021/03/09 02:12:55;;;;;;;26.08;18.60;;;;;;;-1.56;100.00;96385.94;5073239;28;20074;-54
2021/03/09 02:15:30;;;;;;;25.63;18.15;;;;;;;-1.69;100.00;96390.00;5029531;28;20060;-56
2021/03/09 02:18:00;;;;;;;24.27;18.13;;;;;;;-1.76;100.00;96391.19;5063895;28;20477;-57
2021/03/09 02:20:51;;;;;;;25.75;18.20;;;;;;;-1.65;100.00;96390.69;5026783;28;20401;-55
2021/03/09 02:23:29;;;;;;;24.45;17.65;;;;;;;-1.70;100.00;96390.91;5049142;28;20032;-55
2021/03/09 02:26:33;;;;;;;25.15;17.65;;;;;;;-1.86;100.00;96380.44;5023753;28;20574;-56
2021/03/09 02:29:11;;;;;;;25.45;18.00;;;;;;;-1.85;100.00;96383.88;5024750;28;20048;-59
2021/03/09 02:31:40;;;;;;;30.70;18.65;;;;;;;-1.81;100.00;96380.25;5034091;28;20044;-56
2021/03/09 02:34:10;;;;;;;26.02;18.50;;;;;;;-1.94;100.00;96382.53;5078531;28;20040;-56
2021/03/09 02:36:39;;;;;;;28.48;19.40;;;;;;;-1.98;100.00;96381.84;5028178;28;20616;-56
2021/03/09 02:39:08;;;;;;;29.08;18.88;;;;;;;-2.00;100.00;96386.25;5079488;28;20118;-56
2021/03/09 02:41:41;;;;;;;28.55;18.63;;;;;;;-1.83;100.00;96379.47;5037762;28;20048;-56
2021/03/09 02:44:09;;;;;;;31.48;19.65;;;;;;;-1.82;100.00;96381.16;5073939;28;20790;-57
2021/03/09 02:46:37;;;;;;;27.27;19.33;;;;;;;-1.83;100.00;96385.47;5032523;28;20117;-56
2021/03/09 02:49:25;;;;;;;25.15;18.98;;;;;;;-1.80;100.00;96374.16;5063464;28;20526;-56
2021/03/09 02:51:52;;;;;;;27.00;20.00;;;;;;;-1.93;100.00;96368.72;5026466;28;22913;-55
2021/03/09 02:54:19;;;;;;;29.90;20.20;;;;;;;-1.98;100.00;96374.09;5075597;28;20121;-56
2021/03/09 02:56:46;;;;;;;30.00;18.80;;;;;;;-2.11;100.00;96380.72;5056716;28;20054;-56
2021/03/09 02:59:15;;;;;;;30.30;19.92;;;;;;;-2.01;100.00;96370.81;5075550;28;20070;-58
2021/03/09 03:01:44;;;;;;;32.88;20.75;;;;;;;-1.98;100.00;96374.09;5073597;28;20090;-55
2021/03/09 03:04:14;;;;;;;33.88;20.33;;;;;;;-1.92;100.00;96373.81;5037947;28;20078;-55
2021/03/09 03:06:42;;;;;;;28.85;19.48;;;;;;;-2.04;100.00;96376.97;5079542;28;20097;-57
2021/03/09 03:09:10;;;;;;;30.50;19.33;;;;;;;-2.01;100.00;96376.00;5028278;28;20494;-56
2021/03/09 03:11:39;;;;;;;27.83;19.58;;;;;;;-1.99;100.00;96374.19;5075357;28;20133;-58
2021/03/09 03:14:07;;;;;;;31.35;20.35;;;;;;;-1.80;100.00;96371.56;5031792;28;20040;-57
2021/03/09 03:16:35;;;;;;;30.80;21.08;;;;;;;-1.73;100.00;96380.72;5081609;28;20103;-57
2021/03/09 03:19:03;;;;;;;30.52;21.05;;;;;;;-1.73;100.00;96378.97;5029811;28;20078;-53
2021/03/09 03:21:30;;;;;;;31.48;20.92;;;;;;;-1.86;100.00;96377.03;5061125;28;20098;-54
2021/03/09 03:24:02;;;;;;;29.88;19.40;;;;;;;-1.95;100.00;96371.38;5018971;28;20094;-57
2021/03/09 03:26:29;;;;;;;32.05;20.48;;;;;;;-1.78;100.00;96368.00;5066984;28;20032;-59
2021/03/09 03:28:57;;;;;;;29.65;20.50;;;;;;;-1.92;100.00;96373.00;5037829;28;20519;-59
2021/03/09 03:31:23;;;;;;;28.65;20.33;;;;;;;-2.14;100.00;96367.94;5080165;28;20071;-56
2021/03/09 03:33:51;;;;;;;29.35;19.95;;;;;;;-1.95;100.00;96375.72;5026815;28;20044;-57
2021/03/09 03:36:18;;;;;;;32.22;20.30;;;;;;;-2.03;100.00;96372.63;5072297;28;20084;-58
2021/03/09 03:38:44;;;;;;;31.40;21.42;;;;;;;-2.04;100.00;96373.53;5034561;28;20103;-59
2021/03/09 03:41:12;;;;;;;28.63;20.13;;;;;;;-2.02;100.00;96372.56;5081085;28;20135;-58
2021/03/09 03:43:39;;;;;;;35.30;21.27;;;;;;;-2.07;100.00;96373.69;5039044;28;20040;-55
2021/03/09 03:46:07;;;;;;;29.95;20.90;;;;;;;-2.08;100.00;96375.44;5067429;28;20123;-59
2021/03/09 03:48:36;;;;;;;31.73;20.77;;;;;;;-2.12;100.00;96373.06;5078265;28;20139;-56
2021/03/09 03:51:06;;;;;;;31.98;21.38;;;;;;;-2.11;100.00;96374.72;5026891;28;20048;-52
2021/03/09 03:53:35;;;;;;;35.97;22.17;;;;;;;-2.05;100.00;96369.28;5081622;28;20482;-51
2021/03/09 03:56:14;;;;;;;30.35;21.40;;;;;;;-2.00;100.00;96367.31;5033342;28;20111;-56
2021/03/09 03:58:45;;;;;;;30.92;20.63;;;;;;;-2.14;100.00;96370.53;5074447;28;20048;-54
2021/03/09 04:01:13;;;;;;;32.17;21.25;;;;;;;-1.96;100.00;96368.88;5043207;28;20071;-54
2021/03/09 04:03:40;;;;;;;31.42;21.35;;;;;;;-2.00;100.00;96364.72;5064989;28;20067;-57
2021/03/09 04:06:08;;;;;;;33.85;22.13;;;;;;;-1.99;100.00;96366.44;5023469;28;20101;-56
2021/03/09 04:08:37;;;;;;;32.22;21.08;;;;;;;-2.06;100.00;96360.72;5064193;28;20123;-57
2021/03/09 04:11:06;;;;;;;35.40;22.35;;;;;;;-2.06;100.00;96370.22;5031468;28;20036;-53
2021/03/09 04:13:35;;;;;;;34.80;22.00;;;;;;;-2.03;100.00;96364.88;5078519;28;20044;-56
2021/03/09 04:16:04;;;;;;;33.95;20.63;;;;;;;-1.98;100.00;96362.94;5030891;28;20445;-56
2021/03/09 04:18:32;;;;;;;36.90;23.00;;;;;;;-1.95;100.00;96371.38;5051417;28;20055;-54
2021/03/09 04:20:59;;;;;;;38.30;22.25;;;;;;;-2.00;100.00;96362.97;5033444;28;20048;-54
2021/03/09 04:23:26;;;;;;;37.83;22.15;;;;;;;-1.97;100.00;96359.44;5065274;28;20056;-55
2021/03/09 04:25:54;;;;;;;34.95;22.45;;;;;;;-1.92;100.00;96360.91;5026271;28;20115;-57
2021/03/09 04:28:22;;;;;;;34.45;21.05;;;;;;;-1.99;100.00;96358.69;5070545;28;20119;-53
2021/03/09 04:30:50;;;;;;;33.42;22.13;;;;;;;-2.10;100.00;96353.16;5024632;28;20056;-50
2021/03/09 04:33:18;;;;;;;39.28;23.95;;;;;;;-2.06;100.00;96352.13;5060848;28;20072;-53
2021/03/09 04:35:45;;;;;;;34.63;23.45;;;;;;;-2.07;100.00;96365.94;5041639;28;20064;-54
2021/03/09 04:38:11;;;;;;;35.88;22.40;;;;;;;-2.08;100.00;96357.34;5071642;28;20546;-51
2021/03/09 04:40:38;;;;;;;40.85;22.55;;;;;;;-2.09;100.00;96353.09;5074853;28;20094;-51
2021/03/09 04:43:05;;;;;;;38.60;23.63;;;;;;;-2.05;100.00;96352.03;5046137;28;20074;-54
2021/03/09 04:45:32;;;;;;;35.22;23.25;;;;;;;-2.08;100.00;96359.94;5061981;28;20099;-55
2021/03/09 04:48:03;;;;;;;36.80;23.50;;;;;;;-2.15;100.00;96361.13;5027063;28;20045;-51
2021/03/09 04:50:30;;;;;;;34.13;22.20;;;;;;;-2.06;100.00;96359.88;5058602;28;20128;-55
2021/03/09 04:52:57;;;;;;;34.78;22.90;;;;;;;-2.06;100.00;96362.47;5034946;28;20568;-55
2021/03/09 04:55:25;;;;;;;36.78;22.77;;;;;;;-2.07;100.00;96359.00;5072738;28;20071;-52
2021/03/09 04:57:52;;;;;;;38.72;22.05;;;;;;;-2.10;100.00;96368.66;5030816;28;20036;-52
2021/03/09 05:00:21;;;;;;;35.40;22.25;;;;;;;-2.16;100.00;96365.44;5077986;28;20049;-55
2021/03/09 05:02:49;;;;;;;36.88;22.13;;;;;;;-2.12;100.00;96355.81;5030582;28;20127;-52
2021/03/09 05:05:20;;;;;;;34.25;22.40;;;;;;;-2.13;100.00;96363.63;5072924;28;20049;-54
2021/03/09 05:07:47;;;;;;;36.88;23.63;;;;;;;-2.09;100.00;96367.75;5028032;28;20068;-54
2021/03/09 05:10:15;;;;;;;35.70;22.00;;;;;;;-2.01;100.00;96363.06;5066749;28;20080;-53
2021/03/09 05:12:43;;;;;;;33.42;21.38;;;;;;;-2.07;100.00;96366.75;5034331;28;20127;-54
2021/03/09 05:15:12;;;;;;;36.33;22.52;;;;;;;-2.03;100.00;96360.56;5061129;28;20029;-54
2021/03/09 05:17:39;;;;;;;39.13;22.83;;;;;;;-1.97;100.00;96354.25;5026162;28;20129;-55
2021/03/09 05:20:09;;;;;;;38.17;22.70;;;;;;;-1.98;100.00;96348.25;5066556;28;20101;-54
2021/03/09 05:22:38;;;;;;;37.13;23.15;;;;;;;-1.95;100.00;96349.88;5028974;28;20041;-57
2021/03/09 05:25:09;;;;;;;34.85;22.02;;;;;;;-1.97;100.00;96351.69;5079314;28;20504;-56
2021/03/09 05:27:36;;;;;;;36.40;21.73;;;;;;;-1.92;100.00;96347.16;5043016;28;20033;-48
2021/03/09 05:30:04;;;;;;;37.28;22.40;;;;;;;-2.03;100.00;96350.25;5055179;28;20048;-58
2021/03/09 05:32:31;;;;;;;38.17;23.52;;;;;;;-2.05;100.00;96346.03;5062010;28;20044;-52
2021/03/09 05:34:58;;;;;;;39.20;23.42;;;;;;;-1.97;100.00;96346.50;5019571;28;20040;-55
2021/03/09 05:37:25;;;;;;;36.13;22.48;;;;;;;-1.84;100.00;96357.13;5084914;28;20450;-55
2021/03/09 05:39:53;;;;;;;37.30;22.88;;;;;;;-2.01;100.00;96352.75;5001098;28;20068;-50
2021/03/09 05:42:20;;;;;;;35.53;22.08;;;;;;;-2.03;100.00;96359.72;5071251;28;20039;-56
2021/03/09 05:44:47;;;;;;;38.80;21.70;;;;;;;-1.96;100.00;96356.78;5033523;28;20122;-53
2021/03/09 05:47:14;;;;;;;36.75;21.88;;;;;;;-1.86;100.00;96361.50;5069383;28;20068;-53
2021/03/09 05:49:42;;;;;;;37.35;22.23;;;;;;;-1.77;100.00;96363.69;5025040;28;20658;-54
2021/03/09 05:52:10;;;;;;;35.28;21.90;;;;;;;-2.01;100.00;96356.16;5062208;28;20036;-52
2021/03/09 05:54:36;;;;;;;37.00;22.98;;;;;;;-1.97;100.00;96359.44;5025463;28;20122;-55
2021/03/09 05:57:05;;;;;;;34.20;22.10;;;;;;;-1.96;100.00;96356.78;5066067;28;20094;-52
2021/03/09 05:59:33;;;;;;;37.80;24.20;;;;;;;-1.88;100.00;96365.94;5038772;28;20068;-54
2021/03/09 06:02:00;;;;;;;36.10;22.73;;;;;;;-1.82;100.00;96363.06;5078855;28;20047;-57
2021/03/09 06:04:27;;;;;;;36.10;22.52;;;;;;;-1.65;100.00;96365.69;5028600;28;20044;-52
2021/03/09 06:06:55;;;;;;;36.97;22.05;;;;;;;-1.32;100.00;96363.22;5074470;28;20060;-57
2021/03/09 06:09:39;;;;;;;35.97;22.60;;;;;;;-1.15;100.00;96361.56;5023449;28;20095;-57
2021/03/09 06:12:09;;;;;;;36.70;22.83;;;;;;;-1.08;100.00;96358.59;5057655;28;20048;-48
2021/03/09 06:14:38;;;;;;;35.23;21.90;;;;;;;-1.03;100.00;96361.81;5025296;28;20065;-52
2021/03/09 06:17:07;;;;;;;35.28;22.38;;;;;;;-0.99;100.00;96358.16;5061318;28;20057;-55
2021/03/09 06:19:41;;;;;;;35.95;21.55;;;;;;;-0.90;100.00;96363.78;5077509;28;20037;-58
2021/03/09 06:22:08;;;;;;;30.83;20.60;;;;;;;-1.40;100.00;96355.00;5067207;28;20059;-55
2021/03/09 06:24:35;;;;;;;34.28;22.02;;;;;;;-1.14;100.00;96364.06;5060348;28;20495;-56
2021/03/09 06:27:03;;;;;;;37.00;21.38;;;;;;;-0.91;100.00;96357.75;5044020;28;20125;-57
2021/03/09 06:29:31;;;;;;;36.72;22.98;;;;;;;-0.68;100.00;96359.19;5063095;28;20068;-54
2021/03/09 06:32:03;;;;;;;36.80;22.35;;;;;;;-0.42;100.00;96362.19;5031413;28;20045;-51
2021/03/09 06:34:32;;;;;;;36.35;22.73;;;;;;;-0.31;100.00;96352.94;5061065;28;20211;-57
2021/03/09 06:37:07;;;;;;;41.15;22.60;;;;;;;-0.07;100.00;96355.97;5028114;28;20068;-52
2021/03/09 06:39:51;;;;;;;35.63;22.55;;;;;;;-0.14;100.00;96361.56;5074443;28;20048;-51
2021/03/09 06:42:22;;;;;;;36.35;22.33;;;;;;;-0.01;100.00;96357.38;5022870;28;20053;-51
2021/03/09 06:44:56;;;;;;;37.40;22.02;;;;;;;0.07;100.00;96355.25;5077544;28;20045;-50
2021/03/09 06:47:40;;;;;;;33.30;20.98;;;;;;;-0.26;100.00;96361.28;5035046;28;20125;-57
2021/03/09 06:50:10;;;;;;;36.03;21.80;;;;;;;0.11;100.00;96364.53;5054759;28;20427;-54
2021/03/09 06:52:38;;;;;;;36.25;22.27;;;;;;;0.44;100.00;96359.22;5036073;28;20086;-56
2021/03/09 06:55:07;;;;;;;39.40;22.05;;;;;;;0.97;100.00;96364.91;5061984;28;20036;-55
2021/03/09 06:57:34;;;;;;;34.00;21.50;;;;;;;0.85;100.00;96365.59;5023983;28;20037;-55
2021/03/09 07:00:05;;;;;;;35.13;21.48;;;;;;;0.88;100.00;96371.47;5063892;28;20051;-56
2021/03/09 07:02:32;;;;;;;31.65;22.02;;;;;;;1.02;100.00;96372.44;5025744;28;20472;-56
2021/03/09 07:05:04;;;;;;;35.13;21.70;;;;;;;1.25;100.00;96368.50;5078390;28;20055;-57
2021/03/09 07:07:32;;;;;;;37.42;22.55;;;;;;;1.14;100.00;96371.72;5032684;28;20044;-54
2021/03/09 07:10:00;;;;;;;33.35;20.98;;;;;;;1.18;100.00;96378.41;5073811;28;20045;-57
2021/03/09 07:12:28;;;;;;;36.75;22.10;;;;;;;1.33;100.00;96376.66;5027675;28;20029;-54
2021/03/09 07:14:55;;;;;;;35.63;21.67;;;;;;;1.21;100.00;96383.44;5059484;28;20496;-55
2021/03/09 07:17:25;;;;;;;38.30;23.02;;;;;;;1.35;100.00;96383.47;5013975;28;20079;-58
2021/03/09 07:19:53;;;;;;;36.08;22.73;;;;;;;1.28;100.00;96384.75;5048721;28;20052;-56
2021/03/09 07:22:31;;;;;;;36.33;22.92;;;;;;;1.14;100.00;96374.34;5058782;28;20056;-52
2021/03/09 07:25:08;;;;;;;36.38;22.20;;;;;;;1.25;100.00;96387.53;4987535;28;20120;-53
2021/03/09 07:27:40;;;;;;;34.42;21.27;;;;;;;1.04;100.00;96384.41;5036182;28;21310;-55
2021/03/09 07:30:10;;;;;;;32.45;21.10;;;;;;;1.10;100.00;96378.00;5057116;28;20348;-57
2021/03/09 07:32:39;;;;;;;33.38;22.08;;;;;;;1.26;100.00;96383.16;5034064;28;20090;-56
2021/03/09 07:35:09;;;;;;;34.15;21.10;;;;;;;1.67;100.00;96384.13;5064891;28;20393;-51
2021/03/09 07:37:37;;;;;;;35.42;21.77;;;;;;;1.68;100.00;96384.97;5053467;28;20036;-49
2021/03/09 07:40:07;;;;;;;34.40;21.95;;;;;;;1.78;100.00;96380.88;5050624;28;20032;-50
2021/03/09 07:42:34;;;;;;;34.47;23.42;;;;;;;1.65;100.00;96386.00;5075185;28;20068;-50
2021/03/09 07:45:03;;;;;;;33.70;21.67;;;;;;;1.52;100.00;96379.88;5022867;28;20064;-48
2021/03/09 07:47:30;;;;;;;36.97;22.40;;;;;;;1.49;100.00;96381.81;5071361;28;20096;-53
2021/03/09 07:49:57;;;;;;;33.38;21.55;;;;;;;1.83;100.00;96378.03;5036603;28;20477;-53
2021/03/09 07:52:26;;;;;;;36.38;22.17;;;;;;;2.13;100.00;96373.56;5072191;28;20648;-50
2021/03/09 07:55:19;;;;;;;35.40;21.73;;;;;;;1.87;100.00;96372.53;5043888;28;20059;-52
2021/03/09 07:57:47;;;;;;;38.97;22.58;;;;;;;1.93;100.00;96366.13;5066677;28;20075;-54
2021/03/09 08:00:15;;;;;;;34.28;21.30;;;;;;;1.84;100.00;96369.28;5027509;28;20044;-51
2021/03/09 08:02:43;;;;;;;33.22;20.52;;;;;;;1.96;100.00;96362.50;5072768;28;20194;-54
2021/03/09 08:05:14;;;;;;;34.42;21.40;;;;;;;2.34;100.00;96362.72;5031237;28;20052;-54
2021/03/09 08:07:56;;;;;;;33.33;19.50;;;;;;;2.27;100.00;96371.84;5085134;28;20032;-50
2021/03/09 08:10:40;;;;;;;33.03;21.48;;;;;;;2.60;100.00;96363.66;5028226;28;20067;-53
2021/03/09 08:13:23;;;;;;;31.67;20.83;;;;;;;2.65;100.00;96366.84;5061250;28;20051;-49
2021/03/09 08:15:50;;;;;;;29.02;19.50;;;;;;;2.64;100.00;96364.31;5039824;28;20028;-51
2021/03/09 08:18:42;;;;;;;30.38;20.08;;;;;;;2.86;100.00;96375.03;5059283;28;20135;-55
2021/03/09 08:21:10;;;;;;;30.98;19.90;;;;;;;2.64;100.00;96366.91;5026585;28;20033;-51
2021/03/09 08:23:56;;;;;;;31.10;20.23;;;;;;;3.17;100.00;96370.41;5068821;28;20052;-55
2021/03/09 08:26:42;;;;;;;30.20;19.92;;;;;;;3.33;100.00;96366.66;5025157;28;20094;-52
2021/03/09 08:29:32;;;;;;;34.55;21.15;;;;;;;3.24;100.00;96364.69;5071207;28;20040;-52
2021/03/09 08:32:38;;;;;;;32.72;20.30;;;;;;;2.98;100.00;96362.97;5034128;28;20048;-53
2021/03/09 08:35:38;;;;;;;30.45;20.15;;;;;;;3.48;100.00;96366.59;5025994;28;20048;-55
2021/03/09 08:38:14;;;;;;;31.63;20.50;;;;;;;3.56;100.00;96361.69;4974575;28;20140;-54
2021/03/09 08:41:10;;;;;;;30.08;19.60;;;;;;;3.83;100.00;96365.97;5001581;28;20259;-54
2021/03/09 08:43:43;;;;;;;28.88;19.10;;;;;;;3.38;100.00;96362.94;5066384;28;20103;-50
2021/03/09 08:46:12;;;;;;;31.48;20.58;;;;;;;3.77;100.00;96367.22;5030144;28;20044;-57
2021/03/09 08:48:55;;;;;;;28.20;19.27;;;;;;;3.67;100.00;96369.59;5073018;28;20043;-55
2021/03/09 08:51:43;;;;;;;30.90;19.90;;;;;;;4.18;100.00;96355.69;5030205;28;20071;-55
2021/03/09 08:54:38;;;;;;;32.63;20.05;;;;;;;3.90;100.00;96362.00;5061991;28;20045;-55
2021/03/09 08:57:09;;;;;;;34.60;21.33;;;;;;;4.28;100.00;96367.16;5040686;28;20065;-51
2021/03/09 08:59:37;;;;;;;29.27;20.50;;;;;;;4.57;100.00;96353.78;5063486;28;20045;-52
2021/03/09 09:02:12;;;;;;;31.30;20.45;;;;;;;4.91;100.00;96360.00;5020034;28;20047;-55
2021/03/09 09:04:41;;;;;;;27.90;18.88;;;;;;;4.51;100.00;96355.91;5069928;28;20106;-51
2021/03/09 09:07:26;;;;;;;30.23;19.67;;;;;;;4.92;100.00;96359.91;5034459;28;20588;-56
2021/03/09 09:09:56;;;;;;;29.27;19.45;;;;;;;4.27;100.00;96357.66;5054484;28;20076;-56
2021/03/09 09:12:28;;;;;;;31.88;20.13;;;;;;;4.64;100.00;96353.22;5026472;28;20724;-53
2021/03/09 09:15:24;;;;;;;82.88;40.42;;;;;;;5.22;100.00;96348.94;5062753;28;20114;-56
2021/03/09 09:17:54;;;;;;;36.10;22.58;;;;;;;5.20;100.00;96347.41;5039014;28;20055;-51
2021/03/09 09:20:29;;;;;;;76.25;39.08;;;;;;;5.30;100.00;96339.69;5064643;28;20040;-54
2021/03/09 09:23:05;;;;;;;35.70;21.98;;;;;;;5.45;100.00;96347.22;5015362;28;20068;-51
2021/03/09 09:25:35;;;;;;;33.92;20.83;;;;;;;5.51;100.00;96345.13;5063434;28;20045;-52
2021/03/09 09:28:03;;;;;;;31.25;20.55;;;;;;;5.72;98.74;96340.88;5032345;28;20689;-55
2021/03/09 09:30:38;;;;;;;30.33;19.13;;;;;;;5.63;97.02;96342.38;5070738;28;20036;-50
2021/03/09 09:33:05;;;;;;;32.00;19.05;;;;;;;5.77;95.38;96337.88;5027533;28;20591;-49
2021/03/09 09:35:33;;;;;;;30.17;21.75;;;;;;;5.97;96.11;96336.38;5075491;28;20703;-49
2021/03/09 09:38:03;;;;;;;29.45;18.42;;;;;;;6.03;93.32;96346.38;5026970;28;20032;-51
2021/03/09 09:40:33;;;;;;;27.55;17.65;;;;;;;6.01;91.04;96340.41;5074748;28;20064;-51
2021/03/09 09:43:04;;;;;;;27.85;18.88;;;;;;;6.40;84.65;96334.69;5028218;28;20503;-49
2021/03/09 09:45:32;;;;;;;27.20;18.90;;;;;;;6.28;88.65;96330.41;5058288;28;20040;-47
2021/03/09 09:48:01;;;;;;;27.63;18.73;;;;;;;6.52;85.40;96330.25;5034919;28;22921;-53
2021/03/09 09:50:30;;;;;;;31.27;18.98;;;;;;;6.51;88.27;96325.13;5064727;28;20051;-52
2021/03/09 09:52:59;;;;;;;25.90;17.67;;;;;;;6.37;81.60;96329.69;5045744;28;20064;-50
2021/03/09 09:55:27;;;;;;;26.50;18.67;;;;;;;6.38;80.78;96331.34;5072178;28;20044;-55
2021/03/09 09:57:56;;;;;;;27.20;18.95;;;;;;;6.45;82.37;96329.06;5062148;28;20086;-50
2021/03/09 10:00:27;;;;;;;25.45;18.08;;;;;;;6.10;88.02;96326.63;5036010;28;20509;-53
2021/03/09 10:03:15;;;;;;;25.98;18.35;;;;;;;6.63;82.27;96324.97;5066763;28;20040;-52
2021/03/09 10:05:44;;;;;;;29.13;17.67;;;;;;;6.72;81.17;96325.19;5055440;28;20395;-52
2021/03/09 10:08:12;;;;;;;24.88;17.95;;;;;;;6.18;84.11;96324.22;5044772;28;20047;-51
2021/03/09 10:10:41;;;;;;;22.00;15.85;;;;;;;6.01;85.10;96322.94;5022720;28;20457;-49
2021/03/09 10:13:19;;;;;;;25.55;17.52;;;;;;;5.96;86.59;96321.63;5075705;28;20098;-50
2021/03/09 10:15:47;;;;;;;26.65;18.50;;;;;;;5.86;91.00;96332.78;5035451;28;20453;-52
2021/03/09 10:18:25;;;;;;;26.27;18.65;;;;;;;6.40;88.30;96320.72;5066065;28;20089;-52
2021/03/09 10:21:06;;;;;;;25.00;17.98;;;;;;;7.04;84.01;96319.94;5036975;28;20043;-53
2021/03/09 10:23:42;;;;;;;32.38;17.65;;;;;;;6.74;83.65;96329.34;5052403;28;20095;-52
2021/03/09 10:26:10;;;;;;;23.98;17.73;;;;;;;7.06;82.68;96328.53;5023461;28;20067;-52
2021/03/09 10:28:49;;;;;;;25.50;17.88;;;;;;;7.24;77.34;96327.00;5076691;28;20090;-53
2021/03/09 10:31:18;;;;;;;33.88;16.27;;;;;;;6.70;75.86;96322.69;5008283;28;20059;-48
2021/03/09 10:34:02;;;;;;;21.40;15.55;;;;;;;6.49;81.07;96320.00;5051011;28;20048;-50
2021/03/09 10:36:56;;;;;;;23.55;17.60;;;;;;;6.94;79.60;96314.59;5037309;28;20122;-52
2021/03/09 10:39:24;;;;;;;23.73;16.45;;;;;;;7.69;74.87;96310.97;5045067;28;20082;-50
2021/03/09 10:41:52;;;;;;;27.13;16.92;;;;;;;7.23;78.72;96304.34;5013797;28;20549;-51
2021/03/09 10:44:29;;;;;;;22.60;16.33;;;;;;;6.76;79.98;96311.69;5061631;28;20055;-50
2021/03/09 10:46:59;;;;;;;23.58;17.45;;;;;;;7.53;74.33;96311.41;5006261;28;20044;-52
2021/03/09 10:49:27;;;;;;;25.05;18.23;;;;;;;7.44;77.53;96314.00;5072252;28;20093;-50
2021/03/09 10:51:58;;;;;;;25.33;17.23;;;;;;;7.18;78.28;96317.00;5032041;28;20361;-55
2021/03/09 10:54:25;;;;;;;25.58;18.30;;;;;;;7.52;76.88;96311.56;5057597;28;20040;-49
2021/03/09 10:56:52;;;;;;;24.58;16.58;;;;;;;7.71;76.12;96303.81;5027572;28;20040;-50
2021/03/09 10:59:19;;;;;;;22.60;16.17;;;;;;;7.72;75.71;96304.63;5074273;28;20041;-53
2021/03/09 11:01:45;;;;;;;24.30;15.77;;;;;;;7.71;68.97;96301.19;5035650;28;20045;-50
2021/03/09 11:04:14;;;;;;;19.95;14.55;;;;;;;7.20;68.45;96309.03;5067774;28;20419;-53
2021/03/09 11:06:41;;;;;;;22.98;16.10;;;;;;;7.82;72.05;96308.13;5029861;28;20040;-50
2021/03/09 11:09:08;;;;;;;19.50;13.63;;;;;;;7.01;69.99;96315.75;5047583;28;20033;-52
2021/03/09 11:11:35;;;;;;;19.52;14.95;;;;;;;7.71;70.49;96306.44;5037890;28;20045;-51
2021/03/09 11:14:02;;;;;;;18.13;13.75;;;;;;;8.23;62.13;96294.06;5069835;28;20040;-54
2021/03/09 11:16:30;;;;;;;18.42;13.48;;;;;;;7.82;61.45;96303.72;5042900;28;20033;-51
2021/03/09 11:18:58;;;;;;;24.33;12.88;;;;;;;7.34;61.33;96312.16;5073890;28;20047;-51
2021/03/09 11:21:26;;;;;;;18.17;11.32;;;;;;;8.08;57.32;96301.44;5026641;28;20133;-55
2021/03/09 11:23:53;;;;;;;18.13;11.57;;;;;;;8.42;56.11;96292.44;5058075;28;20064;-54
2021/03/09 11:26:21;;;;;;;16.20;12.57;;;;;;;8.21;54.17;96303.03;5075674;28;20090;-48
2021/03/09 11:28:48;;;;;;;14.40;9.88;;;;;;;8.44;52.11;96285.28;5020939;28;20052;-53